Time;durP1;ratioP1;P1;durP2;ratioP2;P2;SDS_P1;SDS_P2;PMS_P1;PMS_P2;Temp;Humidity;BMP_temperature;BMP_pressure;BME280_temperature;BME280_humidity;BME280_pressure;Samples;Min_cycle;Max_cycle;Signal;HPM_P1;HPM_P2
2022/11/02 00:00:19;;;;;;;7.32;5.28;;;15.20;99.90;;;;;;5072217;28;20096;-85
2022/11/02 00:02:44;;;;;;;10.70;5.00;;;15.30;99.90;;;;;;5070915;28;20120;-85
2022/11/02 00:05:13;;;;;;;6.15;4.88;;;15.20;99.90;;;;;;5072127;28;20396;-85
2022/11/02 00:07:40;;;;;;;8.18;4.90;;;15.20;99.90;;;;;;5072349;28;20025;-86
2022/11/02 00:10:07;;;;;;;7.85;5.35;;;15.30;99.90;;;;;;5072395;28;20021;-87
2022/11/02 00:12:32;;;;;;;8.48;5.07;;;15.30;99.90;;;;;;5070888;28;20033;-85
2022/11/02 00:14:58;;;;;;;9.93;6.22;;;15.40;99.90;;;;;;5070691;28;20032;-85
2022/11/02 00:17:24;;;;;;;16.10;5.75;;;15.40;99.90;;;;;;5072667;28;20036;-85
2022/11/02 00:19:50;;;;;;;8.23;5.57;;;15.20;99.90;;;;;;5071929;28;20032;-85
2022/11/02 00:22:15;;;;;;;8.55;5.47;;;15.60;99.90;;;;;;5070936;28;20100;-85
2022/11/02 00:24:41;;;;;;;7.13;5.45;;;15.00;99.90;;;;;;5072195;28;20124;-85
2022/11/02 00:27:07;;;;;;;8.05;5.10;;;15.10;99.90;;;;;;5071936;28;20037;-85
2022/11/02 00:29:34;;;;;;;8.15;5.43;;;15.10;99.90;;;;;;5072567;28;20400;-85
2022/11/02 00:31:59;;;;;;;8.73;5.82;;;15.10;99.90;;;;;;5071774;28;20070;-85
2022/11/02 00:34:25;;;;;;;11.02;7.30;;;15.40;99.90;;;;;;5071294;28;20048;-85
2022/11/02 00:36:52;;;;;;;13.10;7.63;;;15.20;99.90;;;;;;5072302;28;20032;-85
2022/11/02 00:39:18;;;;;;;15.73;8.23;;;15.20;99.90;;;;;;5072149;28;20025;-85
2022/11/02 00:41:43;;;;;;;12.38;7.95;;;15.00;99.90;;;;;;5071806;28;20086;-84
2022/11/02 00:44:09;;;;;;;11.93;7.97;;;15.00;99.90;;;;;;5071990;28;20036;-85
2022/11/02 00:46:34;;;;;;;11.75;8.05;;;15.30;99.90;;;;;;5072447;28;20425;-86
2022/11/02 00:49:00;;;;;;;10.73;7.50;;;14.80;99.90;;;;;;5074870;28;20024;-85
2022/11/02 00:51:26;;;;;;;14.02;6.97;;;14.80;99.90;;;;;;5075933;28;20380;-85
2022/11/02 00:53:51;;;;;;;9.25;6.30;;;14.50;99.90;;;;;;5075693;28;20025;-85
2022/11/02 00:56:17;;;;;;;10.68;6.97;;;14.50;99.90;;;;;;5073942;28;20408;-85
2022/11/02 00:58:43;;;;;;;9.18;7.05;;;14.40;99.90;;;;;;5074660;28;20476;-85
2022/11/02 01:01:09;;;;;;;13.38;6.45;;;14.40;99.90;;;;;;5075630;28;20124;-85
2022/11/02 01:03:34;;;;;;;11.18;6.40;;;14.30;99.90;;;;;;5073850;28;20024;-85
2022/11/02 01:06:07;;;;;;;10.18;6.90;;;14.30;99.90;;;;;;5075378;28;20104;-85
2022/11/02 01:08:33;;;;;;;11.30;7.30;;;14.30;99.90;;;;;;5075470;28;20024;-85
2022/11/02 01:11:15;;;;;;;10.57;8.40;;;14.30;99.90;;;;;;5075458;28;20066;-85
2022/11/02 01:13:41;;;;;;;12.27;7.65;;;14.40;99.90;;;;;;5075207;28;20024;-85
2022/11/02 01:16:07;;;;;;;10.90;7.95;;;14.30;99.90;;;;;;5075244;28;20162;-86
2022/11/02 01:18:33;;;;;;;14.32;8.77;;;14.30;99.90;;;;;;5074898;28;20035;-85
2022/11/02 01:20:58;;;;;;;13.43;8.43;;;14.30;99.90;;;;;;5074935;28;20036;-85
2022/11/02 01:23:24;;;;;;;14.07;8.88;;;14.30;99.90;;;;;;5075081;28;20059;-86
2022/11/02 01:25:50;;;;;;;12.05;8.80;;;14.30;99.90;;;;;;5075138;28;20024;-85
2022/11/02 01:28:17;;;;;;;15.40;8.15;;;14.30;99.90;;;;;;5075116;28;20051;-86
2022/11/02 01:30:43;;;;;;;12.63;8.80;;;14.40;99.90;;;;;;5075222;28;20041;-86
2022/11/02 01:33:08;;;;;;;14.70;8.13;;;14.40;99.90;;;;;;5074406;28;20052;-86
2022/11/02 01:35:37;;;;;;;14.25;8.60;;;14.60;99.90;;;;;;5074790;28;20094;-85
2022/11/02 01:38:02;;;;;;;14.52;8.77;;;14.50;99.90;;;;;;5074900;28;20036;-85
2022/11/02 01:40:37;;;;;;;11.65;7.55;;;14.40;99.90;;;;;;5074818;28;20044;-85
2022/11/02 01:43:22;;;;;;;11.20;8.00;;;14.00;99.90;;;;;;5073491;28;20128;-85
2022/11/02 01:45:50;;;;;;;12.82;8.15;;;14.00;99.90;;;;;;5074833;28;20029;-85
2022/11/02 01:48:18;;;;;;;10.25;7.35;;;13.90;99.90;;;;;;5074549;28;20024;-85
2022/11/02 01:50:45;;;;;;;11.15;7.60;;;13.90;99.90;;;;;;5074973;28;20070;-86
2022/11/02 01:53:11;;;;;;;12.45;7.20;;;13.90;99.90;;;;;;5074657;28;20029;-85
2022/11/02 01:55:38;;;;;;;11.52;7.10;;;13.90;99.90;;;;;;5074518;28;20055;-86
2022/11/02 01:58:08;;;;;;;13.45;7.30;;;14.00;99.90;;;;;;5073485;28;20115;-85
2022/11/02 02:00:36;;;;;;;12.25;8.00;;;14.10;99.90;;;;;;5072057;28;20029;-85
2022/11/02 02:03:11;;;;;;;11.60;7.32;;;14.20;99.90;;;;;;5074210;28;20029;-85
2022/11/02 02:05:42;;;;;;;12.95;7.65;;;14.30;99.90;;;;;;5073348;28;20032;-85
2022/11/02 02:08:09;;;;;;;12.65;8.15;;;14.40;99.90;;;;;;5074309;28;20484;-85
2022/11/02 02:10:35;;;;;;;10.32;7.45;;;14.40;99.90;;;;;;5074536;28;20477;-85
2022/11/02 02:13:02;;;;;;;10.50;7.45;;;14.40;99.90;;;;;;5074333;28;20028;-86
2022/11/02 02:15:43;;;;;;;8.00;7.20;;;14.50;99.90;;;;;;5073956;28;20021;-85
2022/11/02 02:18:21;;;;;;;13.02;7.38;;;14.40;99.90;;;;;;5074235;28;20036;-85
2022/11/02 02:21:03;;;;;;;14.98;7.75;;;14.40;99.90;;;;;;5074217;28;20032;-86
2022/11/02 02:23:55;;;;;;;12.02;7.13;;;14.40;99.90;;;;;;5074172;28;20032;-85
2022/11/02 02:26:33;;;;;;;13.32;7.07;;;14.40;99.90;;;;;;5069909;28;20518;-85
2022/11/02 02:29:06;;;;;;;12.25;7.88;;;14.20;99.90;;;;;;5072608;28;20025;-85
2022/11/02 02:31:55;;;;;;;12.80;7.57;;;14.10;99.90;;;;;;5073708;28;20016;-85
2022/11/02 02:34:40;;;;;;;18.40;7.15;;;14.10;99.90;;;;;;5073604;28;20044;-85
2022/11/02 02:37:18;;;;;;;11.35;6.53;;;14.00;99.90;;;;;;5073667;28;20023;-85
2022/11/02 02:40:17;;;;;;;12.27;7.53;;;14.20;99.90;;;;;;5073715;28;20032;-86
2022/11/02 02:43:11;;;;;;;10.93;7.57;;;14.30;99.90;;;;;;5072435;28;20043;-85
2022/11/02 02:46:09;;;;;;;13.77;8.10;;;14.30;99.90;;;;;;5071936;28;20107;-85
2022/11/02 02:48:37;;;;;;;9.43;8.00;;;14.40;99.90;;;;;;5011496;28;20037;-85
2022/11/02 02:51:09;;;;;;;21.42;8.75;;;14.20;99.90;;;;;;5011571;28;20034;-85
2022/11/02 02:53:40;;;;;;;15.35;9.15;;;14.10;99.90;;;;;;4995413;28;20038;-85
2022/11/02 02:56:08;;;;;;;10.20;8.77;;;14.10;99.90;;;;;;5011657;28;20037;-85
2022/11/02 02:59:01;;;;;;;11.05;8.85;;;14.20;99.90;;;;;;4995442;28;20513;-85
2022/11/02 03:01:27;;;;;;;11.07;7.95;;;14.10;99.90;;;;;;5011598;28;20518;-85
2022/11/02 03:03:53;;;;;;;13.88;8.63;;;14.20;99.90;;;;;;5011514;28;20105;-86
2022/11/02 03:06:31;;;;;;;15.20;9.38;;;14.20;99.90;;;;;;5011168;28;20030;-85
2022/11/02 03:09:15;;;;;;;12.90;8.50;;;14.20;99.90;;;;;;5011552;28;20034;-85
2022/11/02 03:11:58;;;;;;;13.73;9.18;;;14.20;99.90;;;;;;5011068;28;20038;-86
2022/11/02 03:14:26;;;;;;;11.00;8.38;;;14.20;99.90;;;;;;5011154;28;20076;-85
2022/11/02 03:17:07;;;;;;;14.80;9.38;;;14.30;99.90;;;;;;5011266;28;20037;-85
2022/11/02 03:19:44;;;;;;;15.32;8.90;;;14.20;99.90;;;;;;5011255;28;20465;-85
2022/11/02 03:22:20;;;;;;;15.25;9.75;;;14.00;99.90;;;;;;5011363;28;20049;-85
2022/11/02 03:24:54;;;;;;;16.35;9.77;;;14.00;99.90;;;;;;5029128;28;20047;-85
2022/11/02 03:27:28;;;;;;;12.02;9.25;;;14.00;99.90;;;;;;5072940;28;20468;-84
2022/11/02 03:30:04;;;;;;;15.35;10.07;;;14.10;99.90;;;;;;5072768;28;20116;-85
2022/11/02 03:32:47;;;;;;;15.30;9.05;;;14.00;99.90;;;;;;5072241;28;20077;-85
2022/11/02 03:35:46;;;;;;;13.32;8.85;;;14.00;99.90;;;;;;5071021;28;20049;-85
2022/11/02 03:38:15;;;;;;;12.82;9.18;;;14.10;99.90;;;;;;5051120;28;20105;-85
2022/11/02 03:40:47;;;;;;;12.63;8.73;;;14.00;99.90;;;;;;5072730;28;20473;-86
2022/11/02 03:43:14;;;;;;;13.05;9.63;;;14.10;99.90;;;;;;5072063;28;20090;-85
2022/11/02 03:45:53;;;;;;;14.00;9.23;;;14.10;99.90;;;;;;5072458;28;20025;-85
2022/11/02 03:48:22;;;;;;;15.20;8.93;;;14.60;99.90;;;;;;5072617;28;20484;-86
2022/11/02 03:50:52;;;;;;;11.23;9.40;;;14.20;99.90;;;;;;5072662;28;20023;-85
2022/11/02 03:53:24;;;;;;;13.27;8.65;;;14.60;99.90;;;;;;5072581;28;20455;-84
2022/11/02 03:55:59;;;;;;;13.13;8.65;;;14.00;99.90;;;;;;5072378;28;20111;-84
2022/11/02 03:58:25;;;;;;;13.13;8.65;;;14.00;99.90;;;;;;5072591;28;20036;-85
2022/11/02 04:00:58;;;;;;;14.57;8.05;;;14.00;99.90;;;;;;5072486;28;20395;-85
2022/11/02 04:03:24;;;;;;;15.05;8.80;;;13.90;99.90;;;;;;5071930;28;20032;-85
2022/11/02 04:05:50;;;;;;;16.35;9.13;;;13.90;99.90;;;;;;5072463;28;20013;-85
2022/11/02 04:08:25;;;;;;;11.90;7.82;;;13.80;99.90;;;;;;5070428;28;20029;-85
2022/11/02 04:16:20;;;;;;;9.93;5.03;;;13.90;99.90;;;;;;5072275;28;20032;-84
2022/11/02 04:21:30;;;;;;;8.35;5.45;;;13.80;99.90;;;;;;5072108;28;20059;-84
2022/11/02 04:26:40;;;;;;;11.02;5.85;;;14.00;99.90;;;;;;5076063;28;20039;-84
2022/11/02 04:29:06;;;;;;;14.60;6.78;;;13.90;99.90;;;;;;5076091;28;20013;-84
2022/11/02 04:31:31;;;;;;;10.93;7.10;;;13.90;99.90;;;;;;5074940;28;20024;-85
2022/11/02 04:33:58;;;;;;;9.68;6.90;;;14.30;99.90;;;;;;5075328;28;20020;-85
2022/11/02 04:36:24;;;;;;;15.15;7.63;;;13.90;99.90;;;;;;5075881;28;20119;-85
2022/11/02 04:38:50;;;;;;;10.05;6.10;;;13.90;99.90;;;;;;5075995;28;20244;-84
2022/11/02 04:44:03;;;;;;;11.85;6.13;;;13.90;99.90;;;;;;5075394;28;20031;-85
2022/11/02 04:46:32;;;;;;;12.93;7.00;;;14.00;99.90;;;;;;5075563;28;20444;-85
2022/11/02 04:48:57;;;;;;;14.20;7.10;;;14.00;99.90;;;;;;5075610;28;20032;-85
2022/11/02 04:51:25;;;;;;;12.30;6.65;;;14.10;99.90;;;;;;5075612;28;20419;-85
2022/11/02 04:53:52;;;;;;;13.35;6.78;;;14.00;99.90;;;;;;5075814;28;20032;-85
2022/11/02 04:56:18;;;;;;;10.52;6.68;;;14.00;99.90;;;;;;5075072;28;20044;-84
2022/11/02 04:58:49;;;;;;;7.20;6.18;;;13.90;99.90;;;;;;5075545;28;20012;-85
2022/11/02 05:01:15;;;;;;;13.20;6.28;;;14.00;99.90;;;;;;5075199;28;20036;-85
2022/11/02 05:03:41;;;;;;;9.27;6.15;;;14.00;99.90;;;;;;5075421;28;20175;-84
2022/11/02 05:06:08;;;;;;;13.68;6.40;;;13.90;99.90;;;;;;5075291;28;20555;-85
2022/11/02 05:08:35;;;;;;;11.07;6.05;;;13.80;99.90;;;;;;5075528;28;20447;-84
2022/11/02 05:11:01;;;;;;;8.48;5.97;;;13.70;99.90;;;;;;5075028;28;20096;-85
2022/11/02 05:13:27;;;;;;;11.00;6.45;;;13.70;99.90;;;;;;5075668;28;20096;-85
2022/11/02 05:15:57;;;;;;;11.52;6.75;;;13.60;99.90;;;;;;5075518;28;20062;-85
2022/11/02 05:18:23;;;;;;;9.50;6.40;;;13.40;99.90;;;;;;5075072;28;20599;-85
2022/11/02 05:20:51;;;;;;;11.93;6.68;;;13.30;99.90;;;;;;5074053;28;20453;-84
2022/11/02 05:23:17;;;;;;;10.77;8.07;;;13.20;99.90;;;;;;5073838;28;20033;-85
2022/11/02 05:25:50;;;;;;;86.93;10.32;;;13.30;99.90;;;;;;5074935;28;20075;-85
2022/11/02 05:28:16;;;;;;;90.78;11.40;;;13.30;99.90;;;;;;5075276;28;20047;-85
2022/11/02 05:30:41;;;;;;;46.33;10.13;;;13.40;99.90;;;;;;5075313;28;20024;-85
2022/11/02 05:33:07;;;;;;;107.82;10.32;;;13.30;99.90;;;;;;5073374;28;20158;-85
2022/11/02 05:35:32;;;;;;;137.70;11.35;;;13.40;99.90;;;;;;5074985;28;20049;-84
2022/11/02 05:37:58;;;;;;;83.95;10.57;;;13.10;99.90;;;;;;5075608;28;20021;-85
2022/11/02 05:40:24;;;;;;;90.95;10.32;;;13.10;99.90;;;;;;5075161;28;20028;-85
2022/11/02 05:42:49;;;;;;;33.30;9.27;;;12.80;99.90;;;;;;5074853;28;20566;-85
2022/11/02 05:45:15;;;;;;;24.05;8.90;;;12.80;99.90;;;;;;5074381;28;20024;-85
2022/11/02 05:47:40;;;;;;;8.10;7.22;;;12.60;99.90;;;;;;5074698;28;20029;-86
2022/11/02 05:50:06;;;;;;;11.63;7.65;;;12.60;99.90;;;;;;5074934;28;20027;-85
2022/11/02 05:52:33;;;;;;;13.82;6.90;;;12.60;99.90;;;;;;5073233;28;20511;-85
2022/11/02 05:54:59;;;;;;;8.60;6.35;;;12.70;99.90;;;;;;5073992;28;20107;-86
2022/11/02 05:57:25;;;;;;;12.40;6.15;;;12.60;99.90;;;;;;5074438;28;20060;-85
2022/11/02 05:59:50;;;;;;;9.48;6.18;;;12.60;99.90;;;;;;5074229;28;20075;-85
2022/11/02 06:02:16;;;;;;;8.43;6.30;;;12.60;99.90;;;;;;5074544;28;20032;-85
2022/11/02 06:04:41;;;;;;;8.73;5.60;;;12.50;99.90;;;;;;5074226;28;20024;-85
2022/11/02 06:07:07;;;;;;;12.88;5.82;;;12.50;99.90;;;;;;5073857;28;20068;-85
2022/11/02 06:09:32;;;;;;;8.48;5.80;;;12.50;99.90;;;;;;5072872;28;20013;-85
2022/11/02 06:11:58;;;;;;;8.48;6.28;;;12.50;99.90;;;;;;5074130;28;20068;-85
2022/11/02 06:14:23;;;;;;;9.95;6.82;;;12.60;99.90;;;;;;5074272;28;20028;-85
2022/11/02 06:16:49;;;;;;;9.68;7.00;;;12.50;99.90;;;;;;5072826;28;20074;-85
2022/11/02 06:19:14;;;;;;;11.27;6.40;;;12.70;99.90;;;;;;5073946;28;20024;-85
2022/11/02 06:21:40;;;;;;;8.88;6.22;;;12.60;99.90;;;;;;5073765;28;20098;-85
2022/11/02 06:24:06;;;;;;;7.57;6.00;;;12.60;99.90;;;;;;5073858;28;20027;-85
2022/11/02 06:26:31;;;;;;;11.23;7.25;;;12.80;99.90;;;;;;5073742;28;20039;-85
2022/11/02 06:28:58;;;;;;;10.73;6.72;;;12.80;99.90;;;;;;5072380;28;20033;-85
2022/11/02 06:31:23;;;;;;;16.38;8.20;;;12.90;99.90;;;;;;5073979;28;20114;-85
2022/11/02 06:33:49;;;;;;;18.80;9.10;;;13.00;99.90;;;;;;5072508;28;20075;-85
2022/11/02 06:36:15;;;;;;;16.55;9.13;;;13.10;99.90;;;;;;5073560;28;20036;-85
2022/11/02 06:38:40;;;;;;;47.78;7.95;;;13.10;99.90;;;;;;5073683;28;20472;-85
2022/11/02 06:41:06;;;;;;;11.95;7.35;;;13.20;99.90;;;;;;5073418;28;20044;-85
2022/11/02 06:43:37;;;;;;;14.30;8.60;;;13.10;99.90;;;;;;5073867;28;20380;-85
2022/11/02 06:46:03;;;;;;;16.95;9.68;;;13.10;99.90;;;;;;5072758;28;20032;-85
2022/11/02 06:48:28;;;;;;;11.38;8.60;;;13.30;99.90;;;;;;5073803;28;20074;-85
2022/11/02 06:50:55;;;;;;;20.70;8.50;;;13.40;99.90;;;;;;5073128;28;20028;-85
2022/11/02 06:53:21;;;;;;;13.27;7.03;;;13.50;99.90;;;;;;5073269;28;20021;-85
2022/11/02 06:55:53;;;;;;;10.75;7.22;;;13.40;99.90;;;;;;5073234;28;20021;-85
2022/11/02 06:58:19;;;;;;;13.82;6.28;;;13.30;99.90;;;;;;5073030;28;20029;-85
2022/11/02 07:00:44;;;;;;;18.42;7.30;;;13.20;99.90;;;;;;5073046;28;20051;-85
2022/11/02 07:03:10;;;;;;;16.45;7.20;;;13.50;99.90;;;;;;5072997;28;20034;-85
2022/11/02 07:05:36;;;;;;;17.92;7.47;;;13.50;99.90;;;;;;5072548;28;20108;-85
2022/11/02 07:08:03;;;;;;;12.65;7.85;;;13.60;99.90;;;;;;5073387;28;20093;-85
2022/11/02 07:10:29;;;;;;;12.65;7.43;;;13.80;99.90;;;;;;5072813;28;20384;-85
2022/11/02 07:12:55;;;;;;;13.07;7.55;;;14.00;99.90;;;;;;5073277;28;20028;-85
2022/11/02 07:15:22;;;;;;;11.93;7.07;;;14.10;99.90;;;;;;5071979;28;20025;-85
2022/11/02 07:17:49;;;;;;;13.20;7.15;;;14.30;99.90;;;;;;5072764;28;20032;-85
2022/11/02 07:20:15;;;;;;;10.20;6.53;;;14.40;99.90;;;;;;5073189;28;20032;-85
2022/11/02 07:22:40;;;;;;;8.85;6.30;;;14.40;99.90;;;;;;5072682;28;20037;-85
2022/11/02 07:25:06;;;;;;;16.63;5.18;;;14.80;99.90;;;;;;5072505;28;20033;-85
2022/11/02 07:27:38;;;;;;;10.18;6.13;;;14.40;99.90;;;;;;5071550;28;20107;-85
2022/11/02 07:30:04;;;;;;;11.15;6.00;;;14.10;99.90;;;;;;5072758;28;20038;-85
2022/11/02 07:32:29;;;;;;;10.63;5.32;;;14.10;99.90;;;;;;5072398;28;20484;-85
2022/11/02 07:34:55;;;;;;;10.02;5.70;;;14.10;99.90;;;;;;5071807;28;20102;-85
2022/11/02 07:37:21;;;;;;;10.73;6.35;;;14.10;99.90;;;;;;5072560;28;20494;-85
2022/11/02 07:39:46;;;;;;;8.70;6.38;;;14.10;99.90;;;;;;5072382;28;20024;-85
2022/11/02 07:42:12;;;;;;;8.05;6.10;;;14.30;99.90;;;;;;5072695;28;20028;-85
2022/11/02 07:44:37;;;;;;;9.15;6.20;;;14.80;99.90;;;;;;5072296;28;20028;-85
2022/11/02 07:47:03;;;;;;;12.10;6.43;;;15.20;99.90;;;;;;5072528;28;20024;-86
2022/11/02 07:49:28;;;;;;;10.25;7.00;;;15.70;99.90;;;;;;5072504;28;20025;-86
2022/11/02 07:51:55;;;;;;;8.23;6.05;;;16.50;99.90;;;;;;5072441;28;20030;-86
2022/11/02 07:54:21;;;;;;;7.43;6.05;;;16.10;99.90;;;;;;5072662;28;20020;-86
2022/11/02 07:56:46;;;;;;;8.63;6.72;;;16.00;99.90;;;;;;5072459;28;20106;-86
2022/11/02 07:59:12;;;;;;;7.45;6.32;;;15.30;99.90;;;;;;5072419;28;20031;-86
2022/11/02 08:01:38;;;;;;;9.30;6.30;;;16.60;99.90;;;;;;5072578;28;20463;-86
2022/11/02 08:04:03;;;;;;;9.30;6.35;;;17.50;99.90;;;;;;5072216;28;20146;-86
2022/11/02 08:06:29;;;;;;;7.82;6.18;;;18.10;99.90;;;;;;5072304;28;20058;-86
2022/11/02 08:08:55;;;;;;;9.25;5.97;;;17.80;99.90;;;;;;5071521;28;20520;-86
2022/11/02 08:11:21;;;;;;;6.88;5.63;;;18.40;99.90;;;;;;5072083;28;20033;-87
2022/11/02 08:13:46;;;;;;;8.15;5.63;;;17.80;99.90;;;;;;5072420;28;20027;-86
2022/11/02 08:16:12;;;;;;;8.52;6.35;;;17.70;99.90;;;;;;5071978;28;20388;-86
2022/11/02 08:18:38;;;;;;;7.78;6.13;;;17.90;99.90;;;;;;5070923;28;20040;-86
2022/11/02 08:21:03;;;;;;;7.00;5.65;;;17.70;99.90;;;;;;5072719;28;20462;-87
2022/11/02 08:23:29;;;;;;;11.63;5.97;;;18.70;99.90;;;;;;5073045;28;20024;-86
2022/11/02 08:25:58;;;;;;;8.90;5.85;;;18.30;99.90;;;;;;5073672;28;20429;-87
2022/11/02 08:28:27;;;;;;;8.20;5.82;;;21.60;99.90;;;;;;5072706;28;20028;-86
2022/11/02 08:30:52;;;;;;;8.88;6.00;;;22.20;99.90;;;;;;5072081;28;20086;-89
2022/11/02 08:33:19;;;;;;;8.43;6.05;;;23.20;99.90;;;;;;5070928;28;20033;-87
2022/11/02 08:35:46;;;;;;;8.07;6.25;;;23.00;99.90;;;;;;5071291;28;20044;-88
2022/11/02 08:38:12;;;;;;;8.15;5.80;;;22.50;99.90;;;;;;5071807;28;20028;-89
2022/11/02 08:40:38;;;;;;;8.18;5.72;;;22.30;99.90;;;;;;5071936;28;20016;-87
2022/11/02 08:43:06;;;;;;;7.35;5.65;;;21.10;99.90;;;;;;5072100;28;20029;-87
2022/11/02 08:45:33;;;;;;;7.07;5.65;;;20.20;99.90;;;;;;5070822;28;20401;-88
2022/11/02 08:47:59;;;;;;;10.73;7.55;;;19.50;99.90;;;;;;5070606;28;20033;-86
2022/11/02 08:50:25;;;;;;;9.07;8.18;;;19.30;99.90;;;;;;5072276;28;20031;-87
2022/11/02 08:52:51;;;;;;;12.48;8.20;;;18.80;99.90;;;;;;5071692;28;20504;-86
2022/11/02 08:55:17;;;;;;;18.60;8.82;;;18.80;99.90;;;;;;5072159;28;20106;-87
2022/11/02 08:57:54;;;;;;;10.25;8.80;;;19.40;99.90;;;;;;5071907;28;20091;-86
2022/11/02 09:00:31;;;;;;;9.20;7.35;;;21.40;99.90;;;;;;5072003;28;20032;-87
2022/11/02 09:03:03;;;;;;;9.13;7.85;;;21.00;99.90;;;;;;5071576;28;20040;-86
2022/11/02 09:05:49;;;;;;;9.02;7.95;;;20.50;99.90;;;;;;5071692;28;20028;-86
2022/11/02 09:08:17;;;;;;;8.00;7.18;;;21.00;99.90;;;;;;5071444;28;20401;-87
2022/11/02 09:10:44;;;;;;;8.63;7.82;;;21.40;99.90;;;;;;5074963;28;20028;-87
2022/11/02 09:13:14;;;;;;;8.57;7.65;;;21.70;99.90;;;;;;5074877;28;20020;-87
2022/11/02 09:15:40;;;;;;;8.52;7.70;;;21.60;99.90;;;;;;5072864;28;20036;-87
2022/11/02 09:18:06;;;;;;;10.52;7.50;;;22.40;99.90;;;;;;5075221;28;20078;-87
2022/11/02 09:20:33;;;;;;;9.20;8.18;;;24.30;99.90;;;;;;5074711;28;20029;-88
2022/11/02 09:22:59;;;;;;;8.73;7.75;;;26.80;99.90;;;;;;5075195;28;20031;-88
2022/11/02 09:25:24;;;;;;;9.18;7.30;;;26.30;99.90;;;;;;5075401;28;20060;-88
2022/11/02 09:27:54;;;;;;;9.55;7.55;;;26.10;99.90;;;;;;5075243;28;20093;-88
2022/11/02 09:30:20;;;;;;;10.85;7.85;;;26.10;99.90;;;;;;5074210;28;20071;-88
2022/11/02 09:32:57;;;;;;;9.18;7.60;;;27.40;99.90;;;;;;5074414;28;20024;-88
2022/11/02 09:35:24;;;;;;;9.18;7.32;;;27.50;99.90;;;;;;5074282;28;20404;-88
2022/11/02 09:37:49;;;;;;;8.43;7.38;;;29.00;99.90;;;;;;5075047;28;20065;-87
2022/11/02 09:40:20;;;;;;;9.70;7.30;;;28.70;99.90;;;;;;5074364;28;20028;-88
2022/11/02 09:42:59;;;;;;;8.25;6.88;;;29.40;99.90;;;;;;5073739;28;20040;-88
2022/11/02 09:45:26;;;;;;;9.60;7.70;;;28.60;99.90;;;;;;5071375;28;20029;-88
2022/11/02 09:48:05;;;;;;;8.43;6.35;;;26.30;99.90;;;;;;5074160;28;20046;-86
2022/11/02 09:50:40;;;;;;;7.68;6.68;;;25.10;99.90;;;;;;5074981;28;20423;-86
2022/11/02 09:53:12;;;;;;;8.27;7.10;;;25.60;99.90;;;;;;5074057;28;20388;-86
2022/11/02 09:55:44;;;;;;;8.57;6.82;;;25.70;99.90;;;;;;5074219;28;20062;-86
2022/11/02 09:58:15;;;;;;;10.23;6.90;;;24.80;99.90;;;;;;5074497;28;20032;-86
2022/11/02 10:00:46;;;;;;;9.07;7.30;;;24.50;99.90;;;;;;5073837;28;20025;-86
2022/11/02 10:03:40;;;;;;;7.93;6.68;;;25.00;99.90;;;;;;5074499;28;20047;-86
2022/11/02 10:06:17;;;;;;;9.25;6.28;;;26.90;99.90;;;;;;5073799;28;20033;-86
2022/11/02 10:09:01;;;;;;;8.13;6.65;;;26.80;99.90;;;;;;5072833;28;20083;-84
2022/11/02 10:11:44;;;;;;;8.50;5.80;;;29.40;99.90;;;;;;5081902;28;20103;-84
2022/11/02 10:14:19;;;;;;;6.82;5.88;;;30.70;99.90;;;;;;5073258;28;20028;-86
2022/11/02 10:16:54;;;;;;;8.82;5.20;;;31.90;99.90;;;;;;5074182;28;20032;-85
2022/11/02 10:19:20;;;;;;;10.75;4.70;;;33.30;99.90;;;;;;5074493;28;20020;-84
2022/11/02 10:21:55;;;;;;;6.50;5.18;;;33.80;99.90;;;;;;5072602;28;20071;-86
2022/11/02 10:24:32;;;;;;;9.63;4.43;;;34.60;99.90;;;;;;5064699;28;20027;-86
2022/11/02 10:27:05;;;;;;;6.38;4.28;;;33.80;99.90;;;;;;5073584;28;20041;-85
2022/11/02 10:29:45;;;;;;;7.47;4.95;;;33.40;99.90;;;;;;5073698;28;20488;-88
2022/11/02 10:32:12;;;;;;;7.25;4.50;;;34.10;99.90;;;;;;5074284;28;20082;-89
2022/11/02 10:34:39;;;;;;;7.20;4.53;;;34.40;99.90;;;;;;5073616;28;20083;-89
2022/11/02 10:37:34;;;;;;;6.47;4.65;;;34.00;99.90;;;;;;5073703;28;20043;-88
2022/11/02 10:40:06;;;;;;;6.28;4.90;;;34.60;99.90;;;;;;5073925;28;20120;-89
2022/11/02 10:43:11;;;;;;;5.72;3.95;;;34.60;99.90;;;;;;5073566;28;20044;-87
2022/11/02 10:46:05;;;;;;;6.20;4.03;;;33.80;99.90;;;;;;5073464;28;20052;-89
2022/11/02 10:48:34;;;;;;;6.47;3.92;;;32.70;99.90;;;;;;5072525;28;20113;-90
2022/11/02 10:51:12;;;;;;;4.50;3.90;;;32.50;99.90;;;;;;5074441;28;20020;-90
2022/11/02 10:53:39;;;;;;;5.28;4.03;;;33.00;99.90;;;;;;5074493;28;20028;-90
2022/11/02 10:56:24;;;;;;;5.88;4.13;;;33.00;99.90;;;;;;5073877;28;20099;-86
2022/11/02 10:58:58;;;;;;;5.95;3.60;;;34.00;99.90;;;;;;5072584;28;20393;-86
2022/11/02 11:01:25;;;;;;;8.07;3.60;;;34.90;99.90;;;;;;5073662;28;20035;-86
2022/11/02 11:03:57;;;;;;;6.65;3.70;;;35.40;99.90;;;;;;5072633;28;20028;-87
2022/11/02 11:06:27;;;;;;;6.10;3.40;;;35.40;99.90;;;;;;5073298;28;20024;-87
2022/11/02 11:08:59;;;;;;;5.00;3.50;;;34.80;99.90;;;;;;5073247;28;20025;-89
2022/11/02 11:11:29;;;;;;;6.95;3.00;;;33.90;99.90;;;;;;5073633;28;20033;-90
2022/11/02 11:14:04;;;;;;;5.68;3.10;;;35.20;99.90;;;;;;5072277;28;20032;-92
2022/11/02 11:16:35;;;;;;;5.32;3.38;;;35.60;99.90;;;;;;5071880;28;20039;-87
2022/11/02 11:19:02;;;;;;;4.63;3.30;;;35.60;99.90;;;;;;5073247;28;20024;-87
2022/11/02 11:21:36;;;;;;;6.85;3.50;;;35.40;99.90;;;;;;5073209;28;20037;-88
2022/11/02 11:24:24;;;;;;;5.18;3.28;;;36.30;99.90;;;;;;5072918;28;20663;-87
2022/11/02 11:27:12;;;;;;;6.00;2.70;;;35.90;99.90;;;;;;5072280;28;20017;-86
2022/11/02 11:29:53;;;;;;;5.53;2.70;;;35.70;99.90;;;;;;5065003;28;20036;-88
2022/11/02 11:32:27;;;;;;;6.45;2.95;;;35.70;99.90;;;;;;5064233;28;20020;-88
2022/11/02 11:35:01;;;;;;;4.70;3.20;;;35.10;99.90;;;;;;5072958;28;20460;-87
2022/11/02 11:37:27;;;;;;;7.55;3.17;;;35.00;99.90;;;;;;5073476;28;20503;-90
2022/11/02 11:40:00;;;;;;;6.43;3.40;;;34.60;99.90;;;;;;5073167;28;20539;-88
2022/11/02 11:42:30;;;;;;;5.63;3.28;;;35.70;99.90;;;;;;5071697;28;20561;-88
2022/11/02 11:45:01;;;;;;;6.13;3.20;;;35.40;99.90;;;;;;5071369;28;20382;-92
2022/11/02 11:47:36;;;;;;;5.78;3.10;;;35.10;99.90;;;;;;5069885;28;20020;-88
2022/11/02 11:50:17;;;;;;;4.43;3.17;;;35.10;99.90;;;;;;5072826;28;20036;-88
2022/11/02 11:52:42;;;;;;;4.35;2.95;;;34.30;99.90;;;;;;5072928;28;20147;-87
2022/11/02 11:55:20;;;;;;;4.78;2.65;;;34.20;99.90;;;;;;5067966;28;20151;-87
2022/11/02 11:58:02;;;;;;;4.05;2.70;;;35.60;99.90;;;;;;5066876;28;20085;-87
2022/11/02 12:00:28;;;;;;;5.05;2.70;;;35.60;99.90;;;;;;5067623;28;20093;-92
2022/11/02 12:03:12;;;;;;;4.28;2.50;;;35.40;99.90;;;;;;5068322;28;20732;-93
2022/11/02 12:06:10;;;;;;;4.35;2.60;;;35.40;99.90;;;;;;5067940;28;20024;-90
2022/11/02 12:08:57;;;;;;;3.47;2.53;;;34.70;99.90;;;;;;5068408;28;20025;-94
2022/11/02 12:12:04;;;;;;;3.38;2.45;;;35.10;99.90;;;;;;5066673;28;20036;-89
2022/11/02 12:14:59;;;;;;;5.95;2.67;;;35.90;99.90;;;;;;5067027;28;20071;-89
2022/11/02 12:17:45;;;;;;;4.50;2.60;;;35.70;99.90;;;;;;5067910;28;20047;-85
2022/11/02 12:20:44;;;;;;;4.45;2.40;;;35.40;99.90;;;;;;5066184;28;20025;-87
2022/11/02 12:23:18;;;;;;;5.00;2.33;;;33.80;99.90;;;;;;5065966;28;20051;-86
2022/11/02 12:26:01;;;;;;;4.32;2.33;;;34.10;99.90;;;;;;5065538;28;20039;-86
2022/11/02 12:28:39;;;;;;;9.50;2.40;;;33.50;99.90;;;;;;5066815;28;20036;-86
2022/11/02 12:31:19;;;;;;;6.10;2.08;;;33.90;99.90;;;;;;5070084;28;20044;-86
2022/11/02 12:34:06;;;;;;;2.75;2.00;;;33.60;99.90;;;;;;5069885;28;20028;-85
2022/11/02 12:37:02;;;;;;;3.38;2.00;;;32.60;99.90;;;;;;5071802;28;20048;-86
2022/11/02 12:39:53;;;;;;;4.53;2.15;;;32.80;99.90;;;;;;5066766;28;20051;-86
2022/11/02 12:42:29;;;;;;;4.85;2.08;;;32.80;99.90;;;;;;5091841;28;20115;-86
2022/11/02 12:45:17;;;;;;;4.13;1.90;;;32.00;99.90;;;;;;5094975;28;20103;-87
2022/11/02 12:47:58;;;;;;;5.03;2.10;;;32.40;99.90;;;;;;5096057;28;20032;-86
2022/11/02 12:50:43;;;;;;;4.88;2.40;;;31.40;99.90;;;;;;5096369;28;20035;-86
2022/11/02 12:53:18;;;;;;;5.10;2.28;;;31.30;99.90;;;;;;5094286;28;20052;-86
2022/11/02 12:55:48;;;;;;;3.53;2.00;;;30.70;99.90;;;;;;5095971;28;20032;-86
2022/11/02 12:58:36;;;;;;;5.90;2.13;;;30.90;99.90;;;;;;5095850;28;20036;-86
2022/11/02 13:01:11;;;;;;;4.03;1.90;;;31.00;99.90;;;;;;5095636;28;20031;-86
2022/11/02 13:03:59;;;;;;;4.10;2.10;;;31.00;99.90;;;;;;5095693;28;20027;-86
2022/11/02 13:06:33;;;;;;;5.80;1.92;;;31.00;99.90;;;;;;5095543;28;20020;-86
2022/11/02 13:09:09;;;;;;;5.97;2.03;;;30.80;99.90;;;;;;5074837;28;20036;-90
2022/11/02 13:11:46;;;;;;;4.40;2.10;;;30.50;99.90;;;;;;5076228;28;20032;-91
2022/11/02 13:14:16;;;;;;;5.28;2.00;;;30.30;99.90;;;;;;5069259;28;20073;-90